createdAt,value
2018-03-11T00:00:08.692Z,99636.18
2018-03-11T00:02:37.045Z,99629.55
2018-03-11T00:05:05.432Z,99626.70
2018-03-11T00:07:33.802Z,99630.63
2018-03-11T00:10:02.168Z,99624.31
2018-03-11T00:12:30.529Z,99630.52
2018-03-11T00:14:58.899Z,99624.91
2018-03-11T00:17:27.751Z,99622.32
2018-03-11T00:19:56.116Z,99622.20
2018-03-11T00:22:24.487Z,99617.72
2018-03-11T00:24:52.840Z,99627.34
2018-03-11T00:27:21.241Z,99623.70
2018-03-11T00:29:49.620Z,99629.84
2018-03-11T00:32:18.022Z,99623.09
2018-03-11T00:34:46.414Z,99619.30
2018-03-11T00:37:14.738Z,99627.33
2018-03-11T00:39:43.239Z,99624.14
2018-03-11T00:42:11.616Z,99617.59
2018-03-11T00:44:39.977Z,99621.02
2018-03-11T00:47:08.383Z,99618.05
2018-03-11T00:49:36.749Z,99619.84
2018-03-11T00:52:05.109Z,99611.59
2018-03-11T00:54:33.511Z,99609.16
2018-03-11T00:57:01.887Z,99612.91
2018-03-11T00:59:30.247Z,99614.64
2018-03-11T01:01:58.598Z,99603.84
2018-03-11T01:04:27.372Z,99596.58
2018-03-11T01:06:55.813Z,99592.92
2018-03-11T01:09:24.196Z,99592.30
2018-03-11T01:11:52.562Z,99590.73
2018-03-11T01:14:20.932Z,99582.75
2018-03-11T01:16:49.296Z,99583.25
2018-03-11T01:19:18.048Z,99579.07
2018-03-11T01:21:46.428Z,99583.90
2018-03-11T01:24:14.786Z,99588.27
2018-03-11T01:26:43.150Z,99594.76
2018-03-11T01:29:11.528Z,99591.24
2018-03-11T01:31:39.907Z,99587.27
2018-03-11T01:34:08.250Z,99578.38
2018-03-11T01:36:37.012Z,99573.28
2018-03-11T01:39:05.459Z,99574.74
2018-03-11T01:41:33.823Z,99581.70
2018-03-11T01:44:02.192Z,99580.75
2018-03-11T01:46:30.563Z,99586.98
2018-03-11T01:48:58.919Z,99586.56
2018-03-11T01:51:27.776Z,99587.52
2018-03-11T01:53:56.128Z,99581.36
2018-03-11T01:56:24.532Z,99578.72
2018-03-11T01:58:52.900Z,99585.47
2018-03-11T02:01:21.267Z,99581.89
2018-03-11T02:03:49.622Z,99583.63
2018-03-11T02:06:17.988Z,99585.20
2018-03-11T02:08:46.828Z,99586.64
2018-03-11T02:11:15.185Z,99587.32
2018-03-11T02:13:43.532Z,99591.25
2018-03-11T02:16:12.325Z,99585.75
2018-03-11T02:18:41.160Z,99574.77
2018-03-11T02:21:14.229Z,99574.39
2018-03-11T02:23:42.579Z,99573.52
2018-03-11T02:26:11.943Z,99581.55
2018-03-11T02:28:40.315Z,99573.43
2018-03-11T02:31:08.679Z,99565.83
2018-03-11T02:33:37.082Z,99561.96
2018-03-11T02:36:05.563Z,99561.09
2018-03-11T02:38:33.953Z,99559.54
2018-03-11T02:41:02.409Z,99554.59
2018-03-11T02:43:30.754Z,99556.92
2018-03-11T02:45:59.273Z,99556.52
2018-03-11T02:48:27.645Z,99556.63
2018-03-11T02:50:56.668Z,99561.80
2018-03-11T02:53:25.027Z,99558.89
2018-03-11T02:55:53.394Z,99561.34
2018-03-11T02:58:21.754Z,99556.42
2018-03-11T03:00:50.156Z,99554.56
2018-03-11T03:03:18.519Z,99559.34
2018-03-11T03:05:46.879Z,99554.55
2018-03-11T03:08:15.295Z,99551.05
2018-03-11T03:10:43.658Z,99556.63
2018-03-11T03:13:12.020Z,99558.14
2018-03-11T03:15:40.513Z,99555.50
2018-03-11T03:18:08.860Z,99557.63
2018-03-11T03:20:37.707Z,99548.86
2018-03-11T03:23:06.086Z,99546.45
2018-03-11T03:25:34.460Z,99544.61
2018-03-11T03:28:02.838Z,99545.83
2018-03-11T03:30:31.212Z,99542.80
2018-03-11T03:32:59.554Z,99537.00
2018-03-11T03:35:27.922Z,99542.66
2018-03-11T03:37:56.674Z,99543.72
2018-03-11T03:40:25.044Z,99537.31
2018-03-11T03:42:53.409Z,99543.38
2018-03-11T03:45:21.792Z,99534.78
2018-03-11T03:47:50.171Z,99541.66
2018-03-11T03:50:18.528Z,99542.13
2018-03-11T03:52:46.881Z,99544.34
2018-03-11T03:55:15.634Z,99542.02
2018-03-11T03:57:43.986Z,99544.59
2018-03-11T04:00:12.400Z,99547.73
2018-03-11T04:02:40.744Z,99546.48
2018-03-11T04:05:09.102Z,99539.47
2018-03-11T04:07:37.465Z,99549.28
2018-03-11T04:10:06.288Z,99544.82
2018-03-11T04:12:34.655Z,99536.04
2018-03-11T04:15:03.090Z,99536.20
2018-03-11T04:17:31.439Z,99536.52
2018-03-11T04:19:59.795Z,99527.35
2018-03-11T04:22:28.147Z,99534.13
2018-03-11T04:24:56.983Z,99536.62
2018-03-11T04:27:25.328Z,99533.12
2018-03-11T04:29:53.744Z,99536.70
2018-03-11T04:32:22.104Z,99535.84
2018-03-11T04:34:50.463Z,99535.33
2018-03-11T04:37:18.866Z,99525.26
2018-03-11T04:39:47.206Z,99523.31
2018-03-11T04:42:16.040Z,99523.02
2018-03-11T04:44:44.419Z,99523.77
2018-03-11T04:47:12.773Z,99519.45
2018-03-11T04:49:41.126Z,99523.77
2018-03-11T04:52:09.959Z,99517.78
2018-03-11T04:54:38.302Z,99516.14
2018-03-11T04:57:07.143Z,99518.77
2018-03-11T04:59:35.495Z,99519.62
2018-03-11T05:02:03.857Z,99514.52
2018-03-11T05:04:32.264Z,99516.05
2018-03-11T05:07:00.619Z,99517.30
2018-03-11T05:09:28.973Z,99516.39
2018-03-11T05:11:57.722Z,99504.69
2018-03-11T05:14:26.765Z,99517.59
2018-03-11T05:16:55.515Z,99509.39
2018-03-11T05:19:23.872Z,99508.55
2018-03-11T05:21:52.248Z,99509.16
2018-03-11T05:24:20.691Z,99507.91
2018-03-11T05:26:49.015Z,99502.39
2018-03-11T05:29:17.488Z,99507.02
2018-03-11T05:31:45.852Z,99509.05
2018-03-11T05:34:14.254Z,99515.11
2018-03-11T05:36:42.635Z,99503.88
2018-03-11T05:39:11.016Z,99499.62
2018-03-11T05:41:39.380Z,99506.09
2018-03-11T05:44:07.796Z,99496.73
2018-03-11T05:46:36.148Z,99496.73
2018-03-11T05:49:04.503Z,99502.22
2018-03-11T05:51:32.989Z,99500.14
2018-03-11T05:54:01.337Z,99496.09
2018-03-11T05:56:30.779Z,99497.66
2018-03-11T05:58:59.166Z,99500.09
2018-03-11T06:01:27.520Z,99495.27
2018-03-11T06:03:55.864Z,99496.84
2018-03-11T06:06:24.619Z,99492.52
2018-03-11T06:08:52.985Z,99495.98
2018-03-11T06:11:21.343Z,99492.81
2018-03-11T06:13:49.724Z,99487.23
2018-03-11T06:16:18.119Z,99489.00
2018-03-11T06:18:46.476Z,99489.46
2018-03-11T06:21:14.879Z,99484.00
2018-03-11T06:23:43.240Z,99485.18
2018-03-11T06:26:11.645Z,99483.25
2018-03-11T06:28:40.025Z,99481.66
2018-03-11T06:31:08.390Z,99474.53
2018-03-11T06:33:36.769Z,99471.75
2018-03-11T06:36:05.131Z,99471.27
2018-03-11T06:38:33.510Z,99472.34
2018-03-11T06:41:01.912Z,99471.39
2018-03-11T06:43:30.264Z,99466.12
2018-03-11T06:45:58.673Z,99463.74
2018-03-11T06:48:27.032Z,99469.55
2018-03-11T06:50:55.399Z,99466.31
2018-03-11T06:53:23.809Z,99471.70
2018-03-11T06:55:52.171Z,99474.80
2018-03-11T06:58:20.527Z,99474.72
2018-03-11T07:00:48.890Z,99472.05
2018-03-11T07:03:17.640Z,99471.72
2018-03-11T07:05:46.007Z,99470.05
2018-03-11T07:08:14.367Z,99473.17
2018-03-11T07:10:42.735Z,99476.41
2018-03-11T07:13:11.151Z,99471.91
2018-03-11T07:15:39.508Z,99466.17
2018-03-11T07:18:07.906Z,99468.55
2018-03-11T07:20:36.275Z,99469.39
2018-03-11T07:23:04.633Z,99461.66
2018-03-11T07:25:33.044Z,99461.81
2018-03-11T07:28:01.397Z,99456.75
2018-03-11T07:30:29.796Z,99465.68
2018-03-11T07:32:58.151Z,99456.39
2018-03-11T07:35:26.561Z,99463.02
2018-03-11T07:37:54.927Z,99458.27
2018-03-11T07:40:23.292Z,99450.66
2018-03-11T07:42:51.652Z,99462.63
2018-03-11T07:45:20.015Z,99457.47
2018-03-11T07:47:48.778Z,99452.54
2018-03-11T07:50:17.191Z,99452.96
2018-03-11T07:52:45.943Z,99449.81
2018-03-11T07:55:14.841Z,99456.44
2018-03-11T07:57:43.612Z,99456.86
2018-03-11T08:00:12.018Z,99457.19
2018-03-11T08:02:40.372Z,99448.23
2018-03-11T08:05:08.740Z,99451.05
2018-03-11T08:07:37.092Z,99457.29
2018-03-11T08:10:05.456Z,99456.48
2018-03-11T08:12:34.206Z,99458.26
2018-03-11T08:15:02.682Z,99458.15
2018-03-11T08:17:31.467Z,99456.04
2018-03-11T08:19:59.824Z,99445.03
2018-03-11T08:22:28.186Z,99447.84
2018-03-11T08:24:56.541Z,99442.27
2018-03-11T08:30:23.064Z,99449.59
2018-03-11T08:32:51.932Z,99449.41
2018-03-11T08:35:20.323Z,99444.05
2018-03-11T08:37:48.671Z,99436.18
2018-03-11T08:40:17.072Z,99431.05
2018-03-11T08:42:45.449Z,99432.27
2018-03-11T08:45:13.827Z,99437.72
2018-03-11T08:47:42.204Z,99441.83
2018-03-11T08:50:10.570Z,99427.17
2018-03-11T08:52:38.930Z,99429.16
2018-03-11T08:55:07.347Z,99421.98
2018-03-11T08:57:35.696Z,99428.30
2018-03-11T09:00:04.059Z,99421.76
2018-03-11T09:02:32.456Z,99425.41
2018-03-11T09:05:00.845Z,99424.02
2018-03-11T09:07:29.232Z,99423.34
2018-03-11T09:09:57.608Z,99428.56
2018-03-11T09:12:26.005Z,99421.59
2018-03-11T09:14:54.378Z,99418.31
2018-03-11T09:17:22.735Z,99417.28
2018-03-11T09:19:51.850Z,99413.41
2018-03-11T09:22:20.203Z,99418.82
2018-03-11T09:24:48.582Z,99429.05
2018-03-11T09:27:16.942Z,99414.27
2018-03-11T09:29:45.316Z,99414.99
2018-03-11T09:32:13.743Z,99406.21
2018-03-11T09:34:42.103Z,99397.33
2018-03-11T09:37:10.501Z,99402.35
2018-03-11T09:39:38.885Z,99402.50
2018-03-11T09:42:07.267Z,99406.76
2018-03-11T09:44:35.619Z,99399.03
2018-03-11T09:47:04.021Z,99388.66
2018-03-11T09:49:32.395Z,99389.72
2018-03-11T09:52:00.749Z,99385.50
2018-03-11T09:54:29.124Z,99377.66
2018-03-11T09:56:57.545Z,99372.83
2018-03-11T09:59:25.855Z,99374.49
2018-03-11T10:03:46.349Z,99376.80
2018-03-11T10:06:14.803Z,99376.17
2018-03-11T10:08:43.159Z,99366.16
2018-03-11T10:11:11.520Z,99366.11
2018-03-11T10:13:39.880Z,99361.73
2018-03-11T10:16:08.748Z,99366.65
2018-03-11T10:18:37.104Z,99369.56
2018-03-11T10:21:05.482Z,99367.95
2018-03-11T10:23:33.827Z,99372.27
2018-03-11T10:26:02.193Z,99376.59
2018-03-11T10:28:30.560Z,99371.00
2018-03-11T10:30:58.920Z,99370.56
2018-03-11T10:33:27.284Z,99368.07
2018-03-11T10:35:55.774Z,99366.88
2018-03-11T10:38:24.148Z,99366.69
2018-03-11T10:40:52.539Z,99365.41
2018-03-11T10:43:20.909Z,99360.59
2018-03-11T10:45:49.261Z,99357.52
2018-03-11T10:48:17.619Z,99364.13
2018-03-11T10:50:46.123Z,99353.98
2018-03-11T10:53:14.445Z,99344.77
2018-03-11T10:55:43.203Z,99333.13
2018-03-11T10:58:12.097Z,99316.80
2018-03-11T11:00:43.251Z,99325.15
2018-03-11T11:03:17.493Z,99323.02
2018-03-11T11:05:46.256Z,99310.40
2018-03-11T11:08:14.723Z,99308.18
2018-03-11T11:10:43.085Z,99296.19
2018-03-11T11:13:11.441Z,99294.70
2018-03-11T11:15:39.859Z,99299.03
2018-03-11T11:18:08.232Z,99293.05
2018-03-11T11:20:36.606Z,99284.67
2018-03-11T11:23:04.966Z,99289.93
2018-03-11T11:25:33.387Z,99279.53
2018-03-11T11:28:01.893Z,99275.72
2018-03-11T11:30:30.711Z,99282.81
2018-03-11T11:32:59.074Z,99291.00
2018-03-11T11:35:27.456Z,99287.56
2018-03-11T11:37:55.903Z,99281.39
2018-03-11T11:40:24.260Z,99276.27
2018-03-11T11:42:52.605Z,99276.02
2018-03-11T11:45:21.020Z,99274.84
2018-03-11T11:47:49.388Z,99266.64
2018-03-11T11:50:17.772Z,99259.92
2018-03-11T11:52:46.152Z,99267.27
2018-03-11T11:55:14.571Z,99273.45
2018-03-11T11:57:42.912Z,99268.42
2018-03-11T12:00:11.268Z,99266.00
2018-03-11T12:02:39.620Z,99261.48
2018-03-11T12:05:08.435Z,99258.83
2018-03-11T12:07:36.817Z,99241.38
2018-03-11T12:10:05.184Z,99246.37
2018-03-11T12:12:33.539Z,99240.41
2018-03-11T12:15:02.377Z,99224.49
2018-03-11T12:17:30.772Z,99215.53
2018-03-11T12:19:59.242Z,99217.25
2018-03-11T12:22:27.645Z,99206.92
2018-03-11T12:24:56.019Z,99205.47
2018-03-11T12:27:24.470Z,99202.58
2018-03-11T12:29:52.864Z,99200.72
2018-03-11T12:32:21.215Z,99195.88
2018-03-11T12:34:49.580Z,99178.59
2018-03-11T12:37:17.929Z,99187.75
2018-03-11T12:39:46.783Z,99178.36
2018-03-11T12:42:15.356Z,99181.12
2018-03-11T12:44:43.748Z,99172.80
2018-03-11T12:47:12.116Z,99165.34
2018-03-11T12:49:40.489Z,99174.22
2018-03-11T12:52:08.843Z,99184.30
2018-03-11T12:54:37.272Z,99180.48
2018-03-11T12:57:05.635Z,99189.56
2018-03-11T12:59:34.005Z,99181.83
2018-03-11T13:02:02.356Z,99180.58
2018-03-11T13:04:30.752Z,99167.05
2018-03-11T13:06:59.204Z,99165.13
2018-03-11T13:09:28.039Z,99172.25
2018-03-11T13:11:56.390Z,99173.50
2018-03-11T13:14:24.815Z,99184.33
2018-03-11T13:16:53.163Z,99174.96
2018-03-11T13:19:21.523Z,99170.11
2018-03-11T13:21:49.887Z,99158.09
2018-03-11T13:24:18.635Z,99157.05
2018-03-11T13:26:47.202Z,99154.97
2018-03-11T13:29:15.564Z,99149.77
2018-03-11T13:31:43.917Z,99147.94
2018-03-11T13:34:24.468Z,99146.05
2018-03-11T13:36:53.211Z,99138.86
2018-03-11T13:39:39.512Z,99133.12
2018-03-11T13:42:07.861Z,99142.11
2018-03-11T13:44:36.211Z,99136.80
2018-03-11T13:47:09.036Z,99135.48
2018-03-11T13:49:37.402Z,99132.45
2018-03-11T13:52:23.623Z,99136.41
2018-03-11T13:54:52.000Z,99141.50
2018-03-11T14:00:50.745Z,99158.38
2018-03-11T14:03:19.100Z,99142.42
2018-03-11T14:05:47.481Z,99138.50
2018-03-11T14:08:15.889Z,99136.90
2018-03-11T14:10:44.672Z,99148.97
2018-03-11T14:13:13.024Z,99140.95
2018-03-11T14:15:41.534Z,99137.01
2018-03-11T14:18:10.288Z,99134.59
2018-03-11T14:20:38.648Z,99129.72
2018-03-11T14:23:06.997Z,99123.35
2018-03-11T14:25:35.768Z,99116.69
2018-03-11T14:28:04.116Z,99111.46
2018-03-11T14:30:32.483Z,99115.73
2018-03-11T14:33:00.842Z,99106.80
2018-03-11T14:35:29.215Z,99106.52
2018-03-11T14:37:57.632Z,99099.19
2018-03-11T14:40:25.996Z,99089.64
2018-03-11T14:42:54.366Z,99090.14
2018-03-11T14:45:22.739Z,99088.27
2018-03-11T14:47:51.120Z,99069.47
2018-03-11T14:50:20.044Z,99069.95
2018-03-11T14:52:48.464Z,99059.58
2018-03-11T14:55:17.426Z,99052.16
2018-03-11T14:57:46.338Z,99047.99
2018-03-11T15:00:14.856Z,99047.22
2018-03-11T15:02:43.523Z,99046.55
2018-03-11T15:05:12.061Z,99044.02
2018-03-11T15:07:40.615Z,99037.10
2018-03-11T15:10:09.624Z,99033.75
2018-03-11T15:12:38.382Z,99046.58
2018-03-11T15:15:06.786Z,99038.45
2018-03-11T15:17:35.142Z,99044.59
2018-03-11T15:20:03.516Z,99041.64
2018-03-11T15:22:31.968Z,99043.97
2018-03-11T15:25:01.140Z,99038.12
2018-03-11T15:27:29.508Z,99033.91
2018-03-11T15:29:58.833Z,99038.28
2018-03-11T15:32:27.196Z,99034.88
2018-03-11T15:34:55.590Z,99030.52
2018-03-11T15:37:23.970Z,99029.66
2018-03-11T15:39:52.324Z,99022.09
2018-03-11T15:42:20.674Z,99026.66
2018-03-11T15:44:49.069Z,99025.51
2018-03-11T15:47:17.651Z,99029.86
2018-03-11T15:49:46.032Z,99028.78
2018-03-11T15:52:15.186Z,99019.91
2018-03-11T15:54:44.054Z,99031.25
2018-03-11T15:57:12.489Z,99026.59
2018-03-11T15:59:40.871Z,99022.23
2018-03-11T16:02:09.238Z,99022.23
2018-03-11T16:04:37.601Z,99013.66
2018-03-11T16:07:05.950Z,99007.44
2018-03-11T16:09:34.320Z,99008.67
2018-03-11T16:12:02.672Z,99013.16
2018-03-11T16:14:32.555Z,99007.86
2018-03-11T16:17:00.916Z,99004.68
2018-03-11T16:19:30.188Z,99001.13
2018-03-11T16:21:58.555Z,98998.31
2018-03-11T16:24:28.872Z,98997.36
2018-03-11T16:26:55.710Z,98995.53
2018-03-11T16:29:24.091Z,98997.85
2018-03-11T16:31:52.506Z,98991.62
2018-03-11T16:34:20.844Z,98992.38
2018-03-11T16:36:49.327Z,98990.45
2018-03-11T16:39:17.708Z,98989.72
2018-03-11T16:41:46.062Z,98990.38
2018-03-11T16:44:14.439Z,98991.58
2018-03-11T16:46:42.818Z,98995.11
2018-03-11T16:49:11.195Z,98993.08
2018-03-11T16:51:39.565Z,98999.18
2018-03-11T16:54:07.926Z,99004.14
2018-03-11T16:56:36.676Z,99003.34
2018-03-11T16:59:05.047Z,99004.73
2018-03-11T17:01:33.464Z,99005.70
2018-03-11T17:04:01.829Z,99013.84
2018-03-11T17:06:30.198Z,99022.88
2018-03-11T17:08:58.644Z,99032.04
2018-03-11T17:11:27.004Z,99025.17
2018-03-11T17:13:55.379Z,99027.00
2018-03-11T17:16:24.150Z,99018.66
2018-03-11T17:18:52.931Z,99023.50
2018-03-11T17:21:21.299Z,99021.50
2018-03-11T17:23:49.671Z,99012.98
2018-03-11T17:26:18.036Z,99009.58
2018-03-11T17:28:46.419Z,99008.70
2018-03-11T17:31:14.809Z,99011.34
2018-03-11T17:33:43.172Z,99012.94
2018-03-11T17:36:11.553Z,99017.03
2018-03-11T17:38:39.944Z,99015.25
2018-03-11T17:41:08.329Z,99016.14
2018-03-11T17:43:36.792Z,99017.52
2018-03-11T17:46:05.173Z,99012.13
2018-03-11T17:48:33.536Z,99014.00
2018-03-11T17:51:01.913Z,99018.13
2018-03-11T17:53:30.289Z,99012.69
2018-03-11T17:55:58.656Z,99013.30
2018-03-11T17:58:27.021Z,99013.66
2018-03-11T18:00:55.380Z,99023.59
2018-03-11T18:03:24.139Z,99021.70
2018-03-11T18:05:52.493Z,99018.81
2018-03-11T18:08:20.887Z,99017.06
2018-03-11T18:10:49.239Z,99015.48
2018-03-11T18:13:17.614Z,99019.33
2018-03-11T18:15:45.993Z,99022.72
2018-03-11T18:18:14.372Z,99010.84
2018-03-11T18:20:42.814Z,99007.39
2018-03-11T18:23:11.619Z,98998.30
2018-03-11T18:25:39.999Z,99003.45
2018-03-11T18:28:08.762Z,99006.88
2018-03-11T18:30:37.121Z,98999.70
2018-03-11T18:33:05.503Z,99002.77
2018-03-11T18:35:33.869Z,99000.20
2018-03-11T18:38:02.250Z,98998.22
2018-03-11T18:40:30.613Z,98999.30
2018-03-11T18:42:59.252Z,98990.30
2018-03-11T18:45:27.595Z,98998.30
2018-03-11T18:47:56.024Z,98994.75
2018-03-11T18:50:24.609Z,98996.48
2018-03-11T18:52:53.011Z,98991.80
2018-03-11T18:55:21.432Z,98986.25
2018-03-11T18:57:49.868Z,98993.09
2018-03-11T19:02:52.890Z,98984.56
2018-03-11T19:05:21.259Z,98982.33
2018-03-11T19:07:49.636Z,98977.97
2018-03-11T19:10:17.988Z,98973.22
2018-03-11T19:12:46.418Z,98968.74
2018-03-11T19:15:14.773Z,98968.09
2018-03-11T19:17:43.220Z,98971.75
2018-03-11T19:20:11.575Z,98965.00
2018-03-11T19:22:39.945Z,98967.50
2018-03-11T19:25:08.425Z,98967.19
2018-03-11T19:27:36.812Z,98966.13
2018-03-11T19:30:05.220Z,98957.52
2018-03-11T19:32:34.010Z,98958.03
2018-03-11T19:35:02.800Z,98949.02
2018-03-11T19:37:31.254Z,98947.00
2018-03-11T19:39:59.636Z,98946.78
2018-03-11T19:42:28.027Z,98946.58
2018-03-11T19:44:56.784Z,98942.14
2018-03-11T19:47:25.147Z,98946.26
2018-03-11T19:49:53.537Z,98944.78
2018-03-11T19:52:21.910Z,98945.30
2018-03-11T19:54:50.268Z,98943.62
2018-03-11T19:57:18.646Z,98952.70
2018-03-11T19:59:47.022Z,98950.42
2018-03-11T20:02:15.428Z,98944.65
2018-03-11T20:04:43.794Z,98948.54
2018-03-11T20:07:12.199Z,98947.81
2018-03-11T20:09:40.596Z,98940.42
2018-03-11T20:12:09.004Z,98937.00
2018-03-11T20:14:37.397Z,98926.94
2018-03-11T20:17:05.792Z,98929.27
2018-03-11T20:19:34.156Z,98928.26
2018-03-11T20:22:02.515Z,98925.92
2018-03-11T20:24:31.040Z,98930.19
2018-03-11T20:26:59.415Z,98933.06
2018-03-11T20:29:27.812Z,98927.50
2018-03-11T20:31:56.204Z,98925.94
2018-03-11T20:34:24.577Z,98918.98
2018-03-11T20:36:52.962Z,98917.55
2018-03-11T20:39:21.368Z,98920.48
2018-03-11T20:41:49.752Z,98919.87
2018-03-11T20:44:18.148Z,98931.45
2018-03-11T20:46:46.638Z,98928.20
2018-03-11T20:49:15.028Z,98918.31
2018-03-11T20:51:43.498Z,98921.34
2018-03-11T20:54:11.880Z,98916.08
2018-03-11T20:56:40.287Z,98913.10
2018-03-11T20:59:08.985Z,98910.63
2018-03-11T21:01:37.382Z,98912.14
2018-03-11T21:04:06.243Z,98912.81
2018-03-11T21:06:34.600Z,98905.95
2018-03-11T21:09:02.988Z,98909.47
2018-03-11T21:11:31.387Z,98905.52
2018-03-11T21:13:59.780Z,98897.23
2018-03-11T21:16:28.493Z,98894.80
2018-03-11T21:18:57.224Z,98895.87
2018-03-11T21:21:25.702Z,98879.66
2018-03-11T21:23:54.074Z,98876.88
2018-03-11T21:26:22.530Z,98871.27
2018-03-11T21:28:50.895Z,98870.09
2018-03-11T21:31:19.274Z,98869.34
2018-03-11T21:33:47.696Z,98869.40
2018-03-11T21:36:16.068Z,98866.50
2018-03-11T21:38:44.450Z,98864.68
2018-03-11T21:41:13.248Z,98870.11
2018-03-11T21:43:41.629Z,98862.02
2018-03-11T21:46:10.009Z,98857.63
2018-03-11T21:48:38.373Z,98860.37
2018-03-11T21:51:06.757Z,98859.48
2018-03-11T21:53:35.145Z,98857.70
2018-03-11T21:56:03.549Z,98858.41
2018-03-11T21:58:31.999Z,98850.47
2018-03-11T22:01:00.557Z,98848.97
2018-03-11T22:03:28.958Z,98842.59
2018-03-11T22:05:57.341Z,98841.55
2018-03-11T22:08:25.707Z,98840.60
2018-03-11T22:10:54.202Z,98844.25
2018-03-11T22:13:22.584Z,98849.09
2018-03-11T22:15:51.083Z,98848.54
2018-03-11T22:18:19.893Z,98847.50
2018-03-11T22:20:48.276Z,98845.22
2018-03-11T22:23:17.064Z,98839.30
2018-03-11T22:25:45.545Z,98841.52
2018-03-11T22:28:13.976Z,98845.48
2018-03-11T22:30:42.391Z,98839.56
2018-03-11T22:33:11.224Z,98840.70
2018-03-11T22:35:39.996Z,98836.72
2018-03-11T22:38:08.390Z,98841.13
2018-03-11T22:40:36.767Z,98842.71
2018-03-11T22:43:05.157Z,98836.90
2018-03-11T22:45:33.576Z,98836.17
2018-03-11T22:48:02.028Z,98834.52
2018-03-11T22:50:30.443Z,98832.05
2018-03-11T22:52:58.861Z,98828.20
2018-03-11T22:55:28.177Z,98831.86
2018-03-11T22:57:56.599Z,98827.05
2018-03-11T23:00:24.959Z,98822.68
2018-03-11T23:02:53.340Z,98819.16
2018-03-11T23:05:21.714Z,98816.31
2018-03-11T23:07:51.004Z,98814.98
2018-03-11T23:10:19.420Z,98818.92
2018-03-11T23:12:48.221Z,98807.04
2018-03-11T23:15:16.976Z,98811.05
2018-03-11T23:17:45.355Z,98801.55
2018-03-11T23:20:13.722Z,98797.95
2018-03-11T23:22:42.097Z,98796.53
2018-03-11T23:25:10.455Z,98797.83
2018-03-11T23:27:38.828Z,98801.70
2018-03-11T23:30:07.203Z,98785.96
2018-03-11T23:32:35.582Z,98782.68
2018-03-11T23:35:03.952Z,98788.03
2018-03-11T23:37:32.384Z,98785.28
2018-03-11T23:40:00.778Z,98790.43
2018-03-11T23:42:29.143Z,98780.08
2018-03-11T23:44:57.516Z,98778.03
2018-03-11T23:47:25.926Z,98780.86
2018-03-11T23:49:54.769Z,98772.30
2018-03-11T23:52:23.156Z,98776.33
2018-03-11T23:54:51.532Z,98780.70
2018-03-11T23:57:19.905Z,98776.36
2018-03-11T23:59:48.265Z,98772.95
